Time;durP1;ratioP1;P1;durP2;ratioP2;P2;SDS_P1;SDS_P2;PMS_P1;PMS_P2;Temp;Humidity;BMP_temperature;BMP_pressure;BME280_temperature;BME280_humidity;BME280_pressure;Samples;Min_cycle;Max_cycle;Signal;HPM_P1;HPM_P2
2022/07/04 00:00:44;;;;;;;6.42;2.80;;;;;;;20.09;52.44;100738.15;1660748;84;26934;-70
2022/07/04 00:03:10;;;;;;;5.30;2.62;;;;;;;20.05;52.51;100738.03;1660434;84;26579;-70
2022/07/04 00:05:36;;;;;;;4.60;2.60;;;;;;;20.01;52.59;100741.49;1658920;84;98471;-70
2022/07/04 00:08:03;;;;;;;4.08;2.87;;;;;;;20.00;52.69;100737.53;1674240;84;26480;-70
2022/07/04 00:10:29;;;;;;;5.78;2.30;;;;;;;19.97;52.77;100743.23;1666181;83;98740;-70
2022/07/04 00:12:56;;;;;;;3.45;2.35;;;;;;;19.95;52.92;100737.05;1669933;84;27456;-70
2022/07/04 00:15:23;;;;;;;8.75;2.77;;;;;;;19.93;53.00;100737.66;1662397;84;98964;-69
2022/07/04 00:17:50;;;;;;;3.10;2.42;;;;;;;19.91;53.03;100734.20;1664807;84;25756;-70
2022/07/04 00:20:16;;;;;;;4.75;2.83;;;;;;;19.87;53.14;100728.14;1661284;84;27058;-70
2022/07/04 00:22:42;;;;;;;7.80;2.22;;;;;;;19.85;53.17;100735.56;1670569;83;98857;-70
2022/07/04 00:25:09;;;;;;;3.30;2.55;;;;;;;19.79;53.29;100731.97;1639153;85;27509;-70
2022/07/04 00:27:35;;;;;;;5.80;2.90;;;;;;;19.72;53.34;100730.73;1666042;84;98896;-70
2022/07/04 00:30:02;;;;;;;9.45;3.52;;;;;;;19.67;53.49;100735.67;1666427;83;25967;-70
2022/07/04 00:32:28;;;;;;;4.22;2.80;;;;;;;19.62;53.58;100730.60;1668093;84;25940;-70
2022/07/04 00:34:54;;;;;;;3.52;2.52;;;;;;;19.57;53.70;100728.75;1664257;84;98640;-70
2022/07/04 00:37:20;;;;;;;6.50;2.90;;;;;;;19.54;53.87;100738.50;1670537;83;27446;-70
2022/07/04 00:39:46;;;;;;;3.90;3.02;;;;;;;19.51;53.95;100735.99;1668805;84;98777;-70
2022/07/04 00:42:11;;;;;;;5.12;2.90;;;;;;;19.48;54.03;100737.59;1663857;84;25782;-70
2022/07/04 00:44:37;;;;;;;6.58;2.90;;;;;;;19.45;54.13;100726.96;1667050;84;27922;-70
2022/07/04 00:47:05;;;;;;;9.73;3.08;;;;;;;19.39;54.22;100721.52;1658226;84;98834;-70
2022/07/04 00:49:32;;;;;;;9.45;3.00;;;;;;;19.30;54.33;100723.60;1661121;84;27479;-70
2022/07/04 00:51:59;;;;;;;5.62;3.12;;;;;;;19.26;54.55;100726.67;1659940;84;98846;-70
2022/07/04 00:54:29;;;;;;;7.85;3.62;;;;;;;19.22;54.67;100723.34;1661620;84;25697;-70
2022/07/04 00:56:57;;;;;;;5.87;2.87;;;;;;;19.20;54.79;100728.52;1658741;84;26401;-70
2022/07/04 00:59:22;;;;;;;3.77;2.75;;;;;;;19.17;54.90;100717.39;1662778;84;98674;-70
2022/07/04 01:01:50;;;;;;;6.25;3.02;;;;;;;19.12;55.03;100715.03;1665192;84;28124;-71
2022/07/04 01:04:17;;;;;;;10.35;3.25;;;;;;;19.08;55.18;100713.54;1659750;84;98684;-70
2022/07/04 01:06:44;;;;;;;10.60;3.50;;;;;;;19.07;55.25;100709.09;1662445;84;25870;-70
2022/07/04 01:09:10;;;;;;;4.87;3.02;;;;;;;19.01;55.36;100706.84;1665500;84;26357;-70
2022/07/04 01:11:36;;;;;;;6.00;2.90;;;;;;;18.95;55.47;100701.89;1670458;84;98599;-71
2022/07/04 01:14:02;;;;;;;9.25;3.22;;;;;;;18.92;55.69;100693.98;1662989;84;27473;-70
2022/07/04 01:16:29;;;;;;;6.65;3.45;;;;;;;18.95;55.75;100695.09;1661549;84;98769;-70
2022/07/04 01:18:55;;;;;;;9.90;3.70;;;;;;;18.93;55.84;100687.56;1667484;84;25804;-70
2022/07/04 01:21:21;;;;;;;5.30;3.90;;;;;;;18.91;55.83;100688.17;1655757;84;98802;-68
2022/07/04 01:23:48;;;;;;;6.33;3.80;;;;;;;18.87;56.05;100691.24;1669484;84;25740;-70
2022/07/04 01:26:14;;;;;;;4.47;3.37;;;;;;;18.85;56.06;100691.36;1669746;84;27390;-70
2022/07/04 01:28:40;;;;;;;6.20;3.33;;;;;;;18.85;56.23;100687.78;1665777;84;98703;-70
2022/07/04 01:31:06;;;;;;;3.37;2.98;;;;;;;18.85;56.25;100690.50;1660833;84;25748;-70
2022/07/04 01:33:33;;;;;;;5.10;2.83;;;;;;;18.81;56.39;100691.22;1670770;83;98792;-69
2022/07/04 01:36:00;;;;;;;5.75;3.45;;;;;;;18.80;56.41;100689.49;1669159;84;25718;-70
2022/07/04 01:38:26;;;;;;;7.42;3.47;;;;;;;18.75;56.48;100687.63;1671283;84;27439;-70
2022/07/04 01:40:52;;;;;;;6.30;3.80;;;;;;;18.73;56.61;100682.80;1651442;84;99392;-71
2022/07/04 01:43:18;;;;;;;4.95;3.12;;;;;;;18.73;56.71;100681.44;1647338;85;26286;-71
2022/07/04 01:45:46;;;;;;;4.80;2.85;;;;;;;18.69;56.82;100684.88;1648466;85;98933;-72
2022/07/04 01:48:13;;;;;;;4.65;3.37;;;;;;;18.70;56.92;100683.91;1639172;85;25770;-70
2022/07/04 01:50:39;;;;;;;4.97;3.40;;;;;;;18.69;56.94;100682.17;1675114;83;27389;-70
2022/07/04 01:53:06;;;;;;;4.67;3.17;;;;;;;18.67;57.05;100681.91;1653555;84;99184;-70
2022/07/04 01:55:32;;;;;;;7.33;3.33;;;;;;;18.64;57.13;100685.72;1664849;83;25880;-70
2022/07/04 01:58:00;;;;;;;8.03;3.72;;;;;;;18.62;57.19;100680.91;1672546;82;98917;-70
2022/07/04 02:03:11;;;;;;;4.87;3.55;;;;;;;18.56;57.32;100677.76;1676100;83;28023;-71
2022/07/04 02:05:38;;;;;;;4.53;3.62;;;;;;;18.52;57.46;100677.61;1683587;83;98515;-71
2022/07/04 02:08:11;;;;;;;5.85;2.85;;;;;;;18.54;57.56;100679.72;1675930;83;26572;-71
2022/07/04 02:10:37;;;;;;;4.85;3.45;;;;;;;18.55;57.66;100676.02;1676702;83;98740;-71
2022/07/04 02:13:03;;;;;;;7.40;3.80;;;;;;;18.54;57.63;100680.59;1676244;84;25839;-71
2022/07/04 02:15:37;;;;;;;6.15;3.67;;;;;;;18.52;57.68;100674.90;1673935;84;99405;-71
2022/07/04 02:18:07;;;;;;;4.78;3.22;;;;;;;18.46;57.76;100671.67;1686811;83;26004;-71
2022/07/04 02:20:35;;;;;;;9.80;4.05;;;;;;;18.44;57.86;100669.56;1683296;84;25730;-71
2022/07/04 02:23:02;;;;;;;8.33;3.75;;;;;;;18.45;58.00;100672.65;1669866;84;98721;-71
2022/07/04 02:25:29;;;;;;;8.20;3.22;;;;;;;18.44;58.03;100674.13;1678750;84;25752;-71
2022/07/04 02:27:56;;;;;;;7.37;3.45;;;;;;;18.40;58.10;100662.63;1678773;83;98994;-72
2022/07/04 02:30:23;;;;;;;5.05;3.33;;;;;;;18.40;58.21;100663.98;1669400;83;25887;-71
2022/07/04 02:32:49;;;;;;;7.80;3.10;;;;;;;18.38;58.26;100667.80;1693682;83;25955;-71
2022/07/04 02:35:15;;;;;;;5.10;3.37;;;;;;;18.32;58.34;100669.12;1680323;84;99200;-70
2022/07/04 02:37:41;;;;;;;7.55;3.87;;;;;;;18.32;58.43;100674.56;1691181;82;25833;-70
2022/07/04 02:40:08;;;;;;;4.72;3.35;;;;;;;18.30;58.53;100676.52;1670919;83;98910;-70
2022/07/04 02:42:37;;;;;;;4.78;3.65;;;;;;;18.28;58.63;100673.05;1679185;84;25915;-70
2022/07/04 02:45:05;;;;;;;3.40;2.92;;;;;;;18.28;58.71;100670.83;1674857;83;26778;-69
2022/07/04 02:47:31;;;;;;;6.90;3.50;;;;;;;18.24;58.83;100666.12;1684109;82;99316;-70
2022/07/04 02:49:58;;;;;;;6.00;3.52;;;;;;;18.26;58.86;100673.66;1693541;83;25649;-69
2022/07/04 02:52:24;;;;;;;4.12;3.00;;;;;;;18.25;58.93;100669.70;1686325;82;98707;-70
2022/07/04 02:54:52;;;;;;;6.35;3.50;;;;;;;18.23;59.01;100664.39;1655277;85;27781;-71
2022/07/04 02:57:18;;;;;;;5.12;3.45;;;;;;;18.23;59.11;100667.11;1680254;83;25736;-70
2022/07/04 02:59:44;;;;;;;8.53;3.27;;;;;;;18.22;59.15;100666.73;1684579;83;99110;-70
2022/07/04 03:02:10;;;;;;;11.20;3.65;;;;;;;18.21;59.21;100664.13;1673971;83;26438;-68
2022/07/04 03:04:39;;;;;;;13.88;3.72;;;;;;;18.02;59.34;100637.55;1690047;82;98959;-68
2022/07/04 03:07:04;;;;;;;7.70;3.58;;;;;;;18.18;59.40;100671.17;1674793;83;25896;-69
2022/07/04 03:09:30;;;;;;;5.10;3.25;;;;;;;18.14;59.46;100673.25;1687647;82;99584;-68
2022/07/04 03:11:56;;;;;;;7.30;3.55;;;;;;;18.11;59.53;100674.34;1645005;84;26401;-68
2022/07/04 03:14:22;;;;;;;6.12;3.50;;;;;;;18.11;59.63;100676.19;1685693;82;25765;-69
2022/07/04 03:16:48;;;;;;;5.22;3.20;;;;;;;18.10;59.72;100669.03;1682290;82;99141;-68
2022/07/04 03:19:17;;;;;;;13.90;3.50;;;;;;;18.09;59.75;100680.38;1681060;82;26415;-68
2022/07/04 03:21:42;;;;;;;6.03;3.30;;;;;;;18.08;59.84;100682.70;1647155;85;99093;-68
2022/07/04 03:24:09;;;;;;;12.28;4.58;;;;;;;18.10;59.96;100683.95;1661523;84;26584;-69
2022/07/04 03:26:35;;;;;;;6.17;2.92;;;;;;;18.12;60.00;100680.14;1660073;84;25817;-69
2022/07/04 03:29:02;;;;;;;6.92;3.40;;;;;;;18.14;60.11;100679.55;1658548;83;99204;-68
2022/07/04 03:31:30;;;;;;;6.33;3.58;;;;;;;18.17;60.18;100677.09;1648069;85;25896;-69
2022/07/04 03:33:55;;;;;;;7.83;3.10;;;;;;;18.20;60.21;100674.15;1651365;84;98888;-68
2022/07/04 03:36:21;;;;;;;7.70;4.20;;;;;;;18.20;60.25;100674.15;1684162;84;26398;-68
2022/07/04 03:38:48;;;;;;;7.28;4.00;;;;;;;18.22;60.28;100674.87;1676633;84;26518;-69
2022/07/04 03:41:14;;;;;;;14.35;5.37;;;;;;;18.23;60.35;100671.17;1674757;83;99174;-69
2022/07/04 03:43:41;;;;;;;5.12;3.67;;;;;;;18.26;60.40;100676.38;1689920;83;25775;-68
2022/07/04 03:46:06;;;;;;;7.45;3.40;;;;;;;18.29;60.47;100677.99;1675298;83;98904;-68
2022/07/04 03:48:33;;;;;;;4.80;3.70;;;;;;;18.31;60.53;100683.67;1682601;84;27878;-69
2022/07/04 03:50:58;;;;;;;6.70;4.40;;;;;;;18.36;60.56;100684.20;1658814;84;25785;-69
2022/07/04 03:53:24;;;;;;;6.53;3.65;;;;;;;18.41;60.58;100672.51;1689040;82;98674;-69
2022/07/04 03:55:50;;;;;;;7.25;3.67;;;;;;;18.45;60.59;100684.87;1674025;84;26821;-69
2022/07/04 03:58:20;;;;;;;6.65;2.98;;;;;;;18.50;60.69;100679.95;1678991;83;98750;-69
2022/07/04 04:00:46;;;;;;;17.82;4.28;;;;;;;18.57;60.65;100672.70;1680062;84;26571;-68
2022/07/04 04:05:47;;;;;;;6.03;3.10;;;;;;;18.71;60.77;100674.77;1657455;83;98764;-68
2022/07/04 04:08:15;;;;;;;9.03;4.00;;;;;;;18.79;60.77;100671.47;1684581;84;26585;-69
2022/07/04 04:10:40;;;;;;;5.40;3.50;;;;;;;18.89;60.75;100670.27;1691364;83;98827;-69
2022/07/04 04:13:06;;;;;;;7.22;3.50;;;;;;;18.94;60.71;100661.27;1674768;84;25802;-67
2022/07/04 04:15:32;;;;;;;8.70;3.67;;;;;;;19.02;60.77;100662.89;1678459;83;99019;-67
2022/07/04 04:17:58;;;;;;;5.10;3.45;;;;;;;19.11;60.81;100663.53;1679656;83;27550;-69
2022/07/04 04:20:24;;;;;;;6.53;3.05;;;;;;;19.21;60.71;100663.67;1679804;84;25887;-68
2022/07/04 04:22:53;;;;;;;5.55;3.37;;;;;;;19.29;60.70;100663.44;1684622;84;99060;-69
2022/07/04 04:25:20;;;;;;;7.45;3.42;;;;;;;19.37;60.67;100674.56;1684656;84;25725;-68
2022/07/04 04:27:46;;;;;;;9.38;3.15;;;;;;;19.48;60.62;100675.06;1674167;84;99002;-67
2022/07/04 04:30:13;;;;;;;10.35;3.80;;;;;;;19.57;60.57;100668.92;1681229;84;27517;-68
2022/07/04 04:32:38;;;;;;;6.90;3.33;;;;;;;19.64;60.52;100663.86;1676557;84;25370;-68
2022/07/04 04:35:06;;;;;;;17.92;3.62;;;;;;;19.68;60.42;100658.05;1679864;84;98659;-67
2022/07/04 04:37:31;;;;;;;11.68;3.92;;;;;;;19.75;60.40;100654.34;1675200;83;25837;-68
2022/07/04 04:39:57;;;;;;;5.10;3.62;;;;;;;19.81;60.31;100651.61;1678144;83;99083;-68
2022/07/04 04:42:23;;;;;;;4.55;3.50;;;;;;;19.85;60.27;100648.52;1676310;83;27431;-68
2022/07/04 04:44:49;;;;;;;3.50;3.20;;;;;;;19.88;60.17;100646.91;1682955;84;25870;-68
2022/07/04 04:47:15;;;;;;;7.80;3.05;;;;;;;19.90;60.07;100653.58;1679301;84;98753;-68
2022/07/04 04:49:41;;;;;;;7.30;3.20;;;;;;;19.88;60.01;100650.12;1678593;83;27264;-68
2022/07/04 04:52:09;;;;;;;7.53;3.33;;;;;;;19.89;59.98;100657.29;1675429;84;98974;-68
2022/07/04 04:54:36;;;;;;;6.45;3.08;;;;;;;19.92;59.96;100659.76;1684485;83;27506;-68
2022/07/04 04:57:04;;;;;;;8.20;3.52;;;;;;;19.93;59.93;100656.05;1677965;83;25779;-68
2022/07/04 04:59:31;;;;;;;8.68;3.58;;;;;;;19.96;59.95;100650.35;1670161;83;98750;-68
2022/07/04 05:01:59;;;;;;;13.30;3.30;;;;;;;20.03;59.97;100646.13;1681794;84;26698;-68
2022/07/04 05:04:28;;;;;;;10.58;4.37;;;;;;;20.07;59.87;100651.69;1676698;84;98927;-68
2022/07/04 05:06:54;;;;;;;11.18;3.85;;;;;;;20.15;59.86;100664.17;1676830;83;27507;-68
2022/07/04 05:09:20;;;;;;;18.32;5.10;;;;;;;20.23;59.79;100664.39;1686251;84;26318;-69
2022/07/04 05:11:47;;;;;;;9.20;4.75;;;;;;;20.28;59.73;100668.09;1677372;84;98636;-69
2022/07/04 05:14:14;;;;;;;9.45;4.33;;;;;;;20.37;59.72;100661.38;1679651;84;26582;-68
2022/07/04 05:16:40;;;;;;;10.63;4.15;;;;;;;20.50;59.73;100654.94;1682047;84;98828;-69
2022/07/04 05:19:06;;;;;;;9.45;4.97;;;;;;;20.65;59.61;100653.64;1684269;83;27415;-69
2022/07/04 05:21:33;;;;;;;9.18;4.83;;;;;;;20.73;59.59;100656.57;1675996;84;99000;-68
2022/07/04 05:23:59;;;;;;;17.62;4.90;;;;;;;20.84;59.52;100664.66;1683246;83;26459;-69
2022/07/04 05:26:26;;;;;;;14.30;4.50;;;;;;;20.88;60.00;100632.06;1677102;83;25851;-68
2022/07/04 05:28:52;;;;;;;10.60;4.47;;;;;;;20.88;60.00;100632.06;1682102;85;98909;-68
2022/07/04 05:31:18;;;;;;;8.33;4.83;;;;;;;21.10;59.39;100656.95;1682821;85;29588;-68
2022/07/04 05:33:44;;;;;;;6.28;3.80;;;;;;;21.18;59.30;100657.64;1681885;85;98910;-68
2022/07/04 05:36:10;;;;;;;11.97;4.37;;;;;;;21.23;59.26;100661.73;1683604;84;26023;-69
2022/07/04 05:38:39;;;;;;;8.05;4.05;;;;;;;21.32;59.22;100660.92;1683404;84;26152;-69
2022/07/04 05:41:05;;;;;;;14.28;4.33;;;;;;;21.42;59.08;100668.30;1681739;84;98720;-68
2022/07/04 05:43:31;;;;;;;8.48;3.70;;;;;;;21.48;58.99;100671.34;1683172;84;27411;-68
2022/07/04 05:45:57;;;;;;;10.23;3.42;;;;;;;21.56;58.88;100672.02;1683450;84;99063;-68
2022/07/04 05:48:23;;;;;;;7.62;3.50;;;;;;;21.61;58.74;100672.48;1684027;85;25515;-68
2022/07/04 05:50:48;;;;;;;18.98;4.28;;;;;;;;;;1682860;84;25722;-68
2022/07/04 05:53:14;;;;;;;15.20;4.60;;;;;;;21.69;58.46;100696.72;1691016;84;71219;-68
2022/07/04 05:55:43;;;;;;;15.72;4.03;;;;;;;21.70;58.40;100710.72;1672959;85;27551;-68
2022/07/04 05:58:09;;;;;;;7.92;3.70;;;;;;;21.54;58.27;100695.34;1670805;85;99258;-68
2022/07/04 06:00:35;;;;;;;13.78;3.80;;;;;;;21.54;58.27;100695.34;1672587;85;25739;-69
2022/07/04 06:03:01;;;;;;;7.65;3.33;;;;;;;21.58;57.82;100702.26;1672555;85;25785;-69
2022/07/04 06:05:27;;;;;;;15.28;3.75;;;;;;;21.58;57.82;100702.26;1671271;85;98661;-70
2022/07/04 06:07:52;;;;;;;13.30;4.33;;;;;;;21.59;57.87;100718.13;1672853;85;27431;-69
2022/07/04 06:10:18;;;;;;;9.60;3.80;;;;;;;21.51;57.79;100704.30;1670667;85;98828;-69
2022/07/04 06:12:47;;;;;;;14.87;4.17;;;;;;;21.47;57.77;100718.70;1671500;84;25798;-69
2022/07/04 06:15:13;;;;;;;11.30;4.25;;;;;;;21.42;57.67;100727.78;1671565;85;27802;-70
2022/07/04 06:17:39;;;;;;;9.35;3.75;;;;;;;21.29;57.71;100712.13;1670467;85;98840;-69
2022/07/04 06:20:06;;;;;;;10.60;3.92;;;;;;;21.34;57.76;100728.95;1668833;84;25696;-70
2022/07/04 06:22:46;;;;;;;12.98;4.28;;;;;;;21.41;57.76;100722.47;1668079;84;98744;-69
2022/07/04 06:25:15;;;;;;;11.33;4.87;;;;;;;21.41;57.76;100722.47;1671900;84;26025;-68
2022/07/04 06:27:43;;;;;;;15.58;4.80;;;;;;;21.38;57.67;100723.09;1663369;84;99172;-69
2022/07/04 06:30:11;;;;;;;15.10;4.08;;;;;;;21.47;57.69;100729.61;1677017;82;25730;-68
2022/07/04 06:32:50;;;;;;;18.27;4.75;;;;;;;21.54;57.59;100729.44;1691401;83;27308;-69
2022/07/04 06:38:12;;;;;;;14.47;4.58;;;;;;;21.66;57.50;100734.31;1681934;83;26678;-68
2022/07/04 06:40:39;;;;;;;12.55;3.70;;;;;;;21.64;57.13;100712.63;1649468;84;98815;-68
2022/07/04 06:43:05;;;;;;;18.52;5.30;;;;;;;21.64;57.13;100712.63;1675142;82;26705;-68
2022/07/04 06:45:33;;;;;;;8.58;4.03;;;;;;;21.87;57.32;100737.87;1689025;83;99085;-68
2022/07/04 06:48:02;;;;;;;7.47;4.78;;;;;;;22.06;57.14;100741.72;1689549;83;26779;-68
2022/07/04 06:50:28;;;;;;;6.95;4.15;;;;;;;22.17;56.81;100736.16;1680793;83;26157;-68
2022/07/04 06:52:54;;;;;;;13.48;5.78;;;;;;;22.24;56.88;100723.17;1676415;83;99126;-71
2022/07/04 06:55:37;;;;;;;15.18;4.78;;;;;;;22.27;56.84;100723.39;1678202;83;26178;-68
2022/07/04 06:58:03;;;;;;;9.53;4.45;;;;;;;22.33;56.73;100725.06;1679176;84;99017;-70
2022/07/04 07:00:30;;;;;;;8.20;4.53;;;;;;;22.56;56.34;100722.95;1679096;84;25782;-69
2022/07/04 07:02:59;;;;;;;16.15;4.10;;;;;;;22.56;56.34;100722.95;1678879;83;27963;-69
2022/07/04 07:05:28;;;;;;;11.50;3.62;;;;;;;22.72;56.42;100725.63;1678649;84;99675;-70
2022/07/04 07:07:54;;;;;;;3.65;3.30;;;;;;;22.85;56.23;100718.05;1678725;83;25907;-69
2022/07/04 07:10:21;;;;;;;16.52;4.83;;;;;;;22.84;55.75;100709.48;1685453;84;99241;-69
2022/07/04 07:12:47;;;;;;;12.37;4.90;;;;;;;22.83;55.71;100713.23;1673557;84;26605;-70
2022/07/04 07:15:13;;;;;;;23.62;4.03;;;;;;;22.95;55.67;100715.67;1673193;83;26182;-70
2022/07/04 07:17:40;;;;;;;7.75;4.33;;;;;;;23.01;55.57;100705.17;1676471;84;98976;-70
2022/07/04 07:20:08;;;;;;;9.30;3.67;;;;;;;23.19;55.62;100705.66;1675332;84;25918;-68
2022/07/04 07:22:35;;;;;;;11.33;3.50;;;;;;;23.38;55.39;100697.92;1671579;83;98646;-69
2022/07/04 07:25:01;;;;;;;7.78;3.37;;;;;;;23.54;55.25;100701.41;1678005;84;26297;-69
2022/07/04 07:27:29;;;;;;;19.00;3.87;;;;;;;23.68;54.94;100700.06;1679184;83;25819;-69
2022/07/04 07:29:54;;;;;;;7.03;3.58;;;;;;;23.77;54.75;100701.91;1674837;83;98653;-69
2022/07/04 07:32:20;;;;;;;13.62;3.85;;;;;;;23.86;54.54;100699.63;1677020;83;25922;-68
2022/07/04 07:34:46;;;;;;;8.18;3.47;;;;;;;23.90;54.30;100701.92;1672675;84;98947;-69
2022/07/04 07:37:12;;;;;;;3.47;3.17;;;;;;;23.98;53.95;100705.27;1671791;83;26643;-70
2022/07/04 07:39:38;;;;;;;7.03;3.45;;;;;;;23.92;53.59;100707.25;1678882;84;98946;-69
2022/07/04 07:42:04;;;;;;;8.80;3.20;;;;;;;23.90;53.65;100705.16;1675961;83;25869;-68
2022/07/04 07:44:33;;;;;;;6.12;2.92;;;;;;;23.89;53.45;100704.81;1677011;83;26386;-68
2022/07/04 07:46:59;;;;;;;14.47;3.65;;;;;;;23.86;53.09;100712.81;1674085;83;98866;-68
2022/07/04 07:49:24;;;;;;;10.38;3.65;;;;;;;23.90;53.25;100712.01;1675741;84;27183;-69
2022/07/04 07:51:51;;;;;;;8.25;2.90;;;;;;;24.01;53.12;100704.97;1674773;84;99090;-69
2022/07/04 07:54:17;;;;;;;8.38;3.58;;;;;;;24.17;52.67;100703.80;1684463;83;27856;-70
2022/07/04 07:56:44;;;;;;;7.45;3.50;;;;;;;24.21;52.74;100708.47;1681284;83;26329;-70
2022/07/04 07:59:10;;;;;;;8.15;3.37;;;;;;;24.38;52.84;100717.27;1679175;83;98771;-69
2022/07/04 08:01:37;;;;;;;5.83;3.08;;;;;;;24.49;52.60;100717.05;1678794;83;25717;-69
2022/07/04 08:06:48;;;;;;;11.40;3.00;;;;;;;24.49;52.16;100715.69;1685187;83;26045;-68
2022/07/04 08:09:14;;;;;;;3.33;2.45;;;;;;;24.52;51.90;100719.48;1679589;83;25748;-68
2022/07/04 08:11:41;;;;;;;6.55;3.35;;;;;;;24.57;51.54;100721.77;1678391;84;97930;-69
2022/07/04 08:14:08;;;;;;;3.10;2.80;;;;;;;24.46;51.47;100726.09;1675956;84;25711;-68
2022/07/04 08:16:36;;;;;;;11.33;3.20;;;;;;;24.31;51.50;100739.95;1675689;84;97970;-69
2022/07/04 08:19:03;;;;;;;6.83;3.05;;;;;;;24.17;51.50;100727.59;1678604;84;25809;-68
2022/07/04 08:21:29;;;;;;;6.67;3.12;;;;;;;24.08;51.67;100722.52;1676424;84;25731;-68
2022/07/04 08:23:55;;;;;;;6.85;3.10;;;;;;;24.08;51.72;100725.77;1675116;84;99180;-67
2022/07/04 08:26:21;;;;;;;11.78;8.53;;;;;;;24.10;51.72;100733.32;1670990;83;26989;-67
2022/07/04 08:28:46;;;;;;;5.05;4.28;;;;;;;24.08;51.78;100732.10;1676765;83;99304;-69
2022/07/04 08:31:12;;;;;;;5.97;2.80;;;;;;;24.02;51.47;100727.73;1677777;83;25845;-69
2022/07/04 08:33:38;;;;;;;5.45;2.80;;;;;;;23.90;51.50;100729.30;1676616;83;98936;-69
2022/07/04 08:36:05;;;;;;;4.92;2.70;;;;;;;23.85;51.62;100732.13;1680503;84;27488;-69
2022/07/04 08:38:31;;;;;;;4.45;2.65;;;;;;;23.81;51.60;100725.23;1675925;83;25812;-71
2022/07/04 08:40:59;;;;;;;10.13;2.65;;;;;;;23.75;51.59;100725.83;1679884;83;99199;-69
2022/07/04 08:43:26;;;;;;;6.47;2.62;;;;;;;23.74;51.73;100726.84;1678860;84;25793;-69
2022/07/04 08:45:55;;;;;;;6.17;2.65;;;;;;;23.76;51.77;100723.45;1676511;84;98893;-68
2022/07/04 08:48:26;;;;;;;7.70;2.55;;;;;;;23.84;51.76;100731.77;1686116;83;27406;-70
2022/07/04 08:50:59;;;;;;;7.33;2.37;;;;;;;23.92;51.69;100734.63;1682014;83;25804;-69
2022/07/04 08:53:28;;;;;;;3.17;2.02;;;;;;;23.93;51.43;100735.84;1677665;84;98242;-69
2022/07/04 08:58:43;;;;;;;6.33;2.25;;;;;;;23.81;51.39;100736.18;1681589;83;98667;-69
2022/07/04 09:01:14;;;;;;;6.40;3.92;;;;;;;23.71;51.50;100729.88;1674422;83;28034;-70
2022/07/04 09:03:44;;;;;;;9.18;2.75;;;;;;;23.71;51.49;100734.84;1677705;83;98779;-68
2022/07/04 09:06:12;;;;;;;4.62;3.00;;;;;;;23.71;51.57;100733.98;1684113;83;25882;-69
2022/07/04 09:08:39;;;;;;;9.00;2.85;;;;;;;23.78;51.66;100739.22;1679628;83;26412;-70
2022/07/04 09:11:07;;;;;;;9.48;2.45;;;;;;;23.94;51.77;100738.08;1675632;83;98748;-69
2022/07/04 09:13:34;;;;;;;4.87;2.60;;;;;;;24.08;51.72;100741.69;1681425;83;27400;-69
2022/07/04 09:16:01;;;;;;;2.77;2.37;;;;;;;24.17;51.71;100747.62;1680305;83;98946;-70
2022/07/04 09:18:31;;;;;;;6.20;2.08;;;;;;;24.23;51.49;100749.77;1682158;83;26204;-69
2022/07/04 09:21:01;;;;;;;3.60;2.33;;;;;;;24.29;51.67;100757.91;1674536;83;25884;-70
2022/07/04 09:23:30;;;;;;;6.70;3.90;;;;;;;24.46;51.57;100765.83;1683243;83;98789;-68
2022/07/04 09:26:19;;;;;;;8.70;2.80;;;;;;;24.45;51.55;100765.47;1681298;83;27390;-69
2022/07/04 09:28:57;;;;;;;6.80;2.50;;;;;;;24.55;51.63;100763.53;1681370;83;98784;-70
2022/07/04 09:31:26;;;;;;;11.05;2.83;;;;;;;24.60;51.37;100774.39;1681709;83;25854;-69
2022/07/04 09:34:04;;;;;;;5.45;2.27;;;;;;;24.49;51.32;100777.34;1674972;84;99157;-68
2022/07/04 09:36:33;;;;;;;3.00;2.70;;;;;;;24.48;51.46;100775.61;1677378;84;25817;-69
2022/07/04 09:42:03;;;;;;;7.30;2.05;;;;;;;24.59;51.45;100775.41;1784049;76;26295;-69
2022/07/04 09:44:49;;;;;;;12.33;2.60;;;;;;;24.63;51.22;100783.32;1754979;80;26450;-69
2022/07/04 09:47:24;;;;;;;12.33;2.02;;;;;;;24.47;51.10;100777.14;1761921;79;99243;-69
2022/07/04 09:50:21;;;;;;;3.33;2.20;;;;;;;24.42;51.08;100769.88;1769434;79;25707;-70
2022/07/04 09:52:57;;;;;;;6.85;2.27;;;;;;;24.41;51.11;100775.87;1777721;79;99154;-69
2022/07/04 09:55:34;;;;;;;8.23;2.67;;;;;;;24.35;50.95;100789.31;1786224;79;25820;-67
2022/07/04 09:58:06;;;;;;;12.25;3.17;;;;;;;24.34;51.03;100784.85;1779529;79;99436;-69
2022/07/04 10:00:42;;;;;;;9.65;2.77;;;;;;;24.39;51.11;100782.01;1728242;82;27471;-69
2022/07/04 10:03:47;;;;;;;8.73;2.20;;;;;;;24.54;51.18;100785.97;1706902;82;26157;-69
2022/07/04 10:06:17;;;;;;;2.22;2.02;;;;;;;24.67;51.03;100787.48;1681989;83;98667;-69
2022/07/04 10:08:44;;;;;;;7.00;2.30;;;;;;;24.59;50.93;100789.62;1685107;83;26001;-70
2022/07/04 10:11:11;;;;;;;2.58;2.00;;;;;;;24.59;51.03;100785.50;1668043;83;98868;-70
2022/07/04 10:13:38;;;;;;;13.95;3.02;;;;;;;24.80;51.00;100790.20;1653911;85;27947;-68
2022/07/04 10:16:05;;;;;;;6.35;2.30;;;;;;;24.99;50.87;100787.00;1653924;83;99004;-71
2022/07/04 10:18:31;;;;;;;7.92;2.70;;;;;;;25.18;50.78;100786.85;1685423;83;25841;-69
2022/07/04 10:20:57;;;;;;;4.10;2.40;;;;;;;25.38;50.66;100781.55;1696992;82;25566;-70
2022/07/04 10:23:30;;;;;;;4.87;2.25;;;;;;;25.53;50.28;100779.95;1679993;82;98635;-70
2022/07/04 10:25:55;;;;;;;5.65;2.62;;;;;;;25.46;50.07;100773.38;1676668;84;27491;-69
2022/07/04 10:28:21;;;;;;;3.50;2.40;;;;;;;25.45;50.10;100778.52;1665806;83;98918;-70
2022/07/04 10:30:51;;;;;;;3.30;2.20;;;;;;;25.54;50.05;100772.58;1671834;84;25738;-70
2022/07/04 10:33:24;;;;;;;18.23;2.70;;;;;;;25.61;50.02;100781.89;1678835;83;25790;-67
2022/07/04 10:35:54;;;;;;;7.83;2.45;;;;;;;25.61;49.77;100774.17;1671388;84;98969;-67
2022/07/04 10:38:24;;;;;;;10.83;2.73;;;;;;;25.63;49.59;100771.62;1673230;84;28227;-68
2022/07/04 10:40:56;;;;;;;8.23;2.87;;;;;;;25.68;49.68;100774.78;1678163;84;98842;-68
2022/07/04 10:43:43;;;;;;;4.17;2.12;;;;;;;25.77;49.52;100770.20;1675866;84;25730;-68
2022/07/04 10:46:32;;;;;;;4.10;2.33;;;;;;;25.75;49.22;100776.36;1668561;83;98818;-69
2022/07/04 10:49:19;;;;;;;7.42;2.22;;;;;;;25.70;48.88;100775.98;1679187;85;25806;-68
2022/07/04 10:51:54;;;;;;;6.15;2.45;;;;;;;25.71;48.72;100774.97;1671142;84;27525;-70
2022/07/04 10:54:33;;;;;;;4.37;1.60;;;;;;;25.71;48.67;100776.34;1675582;84;99312;-67
2022/07/04 10:57:18;;;;;;;25.65;3.77;;;;;;;25.80;48.61;100770.74;1677311;84;26192;-68
2022/07/04 10:59:56;;;;;;;5.05;1.60;;;;;;;25.78;48.24;100791.14;1674021;84;99463;-68
2022/07/04 11:02:27;;;;;;;8.63;2.40;;;;;;;25.79;47.94;100772.27;1674554;84;25692;-68
2022/07/04 11:05:07;;;;;;;10.63;2.30;;;;;;;25.76;48.02;100782.20;1672017;83;99102;-68
2022/07/04 11:07:39;;;;;;;5.70;2.20;;;;;;;25.85;47.67;100771.12;1677697;84;25753;-68
2022/07/04 11:12:57;;;;;;;9.70;1.87;;;;;;;26.30;47.63;100770.46;1675964;85;25799;-69
2022/07/04 11:15:34;;;;;;;8.90;2.40;;;;;;;26.36;46.76;100773.45;1663377;84;25781;-68
2022/07/04 11:18:12;;;;;;;8.95;2.60;;;;;;;26.42;46.59;100777.42;1632501;86;98922;-69
2022/07/04 11:20:48;;;;;;;10.48;2.22;;;;;;;26.46;46.47;100766.44;1675913;84;25793;-68
2022/07/04 11:23:20;;;;;;;5.90;2.77;;;;;;;26.47;46.38;100760.78;1694965;83;99554;-68
2022/07/04 11:25:52;;;;;;;5.00;2.40;;;;;;;26.61;46.43;100758.42;1674379;84;26737;-69
2022/07/04 11:28:35;;;;;;;7.42;2.08;;;;;;;26.75;46.05;100755.87;1671420;84;98991;-68
2022/07/04 11:31:02;;;;;;;3.08;2.17;;;;;;;26.84;45.68;100754.86;1672363;84;27497;-68
2022/07/04 11:33:33;;;;;;;7.30;2.40;;;;;;;26.81;45.70;100750.22;1637957;86;25773;-69
2022/07/04 11:36:16;;;;;;;8.10;2.22;;;;;;;26.92;45.89;100749.89;1676169;84;98757;-69
2022/07/04 11:38:59;;;;;;;6.80;2.33;;;;;;;27.08;45.93;100752.70;1668693;84;26080;-68
2022/07/04 11:47:17;;;;;;;9.68;2.83;;;;;;;27.30;45.54;100742.90;1638453;85;99405;-66
2022/07/04 11:49:54;;;;;;;6.03;2.50;;;;;;;27.31;45.15;100743.25;1645303;85;25751;-70
2022/07/04 11:52:40;;;;;;;5.45;2.60;;;;;;;27.12;44.88;100744.96;1648265;85;98839;-69
2022/07/04 11:55:10;;;;;;;6.45;2.85;;;;;;;27.14;45.01;100743.76;1672484;83;25715;-69